< < Back
Terminal Aerodrome Forecast


Current Version              Previous Versions:   1  2  3  4  5  6  7  8  9  

Terminal Aerodrome Forecast

164
FTUS42 KMLB 251700
TAFMCO
TAF
KMCO 251738Z 2518/2618 20008KT P6SM VCTS SCT040CB SCT080 SCT250
      TEMPO 2518/2521 3SM TSRA SCT020 BKN035CB OVC050
     FM252300 21003KT P6SM FEW040 BKN250
     FM261400 23005KT P6SM SCT030 SCT250=



Latest METAR

970
SAUS70 KWBC 252300 RRL
MTRMCO
METAR KMCO 252253Z 07008KT 360V080 10SM FEW050 SCT080 BKN210 OVC300
27/23 A3007 RMK AO2 SLP181 CB DSNT SW AND DSNT NW MOV E
T02720228


USA.gov is the U.S. government's official web portal to all federal, state and local government web resources and services.